Time;durP1;ratioP1;P1;durP2;ratioP2;P2;SDS_P1;SDS_P2;PMS_P1;PMS_P2;Temp;Humidity;BMP_temperature;BMP_pressure;BME280_temperature;BME280_humidity;BME280_pressure;Samples;Min_cycle;Max_cycle;Signal;HPM_P1;HPM_P2
2021/09/19 00:04:59;;;;;;;2.40;0.35;;;19.40;35.80;;;;;;20892060;27;81013;-74
2021/09/19 00:15:04;;;;;;;3.88;0.40;;;19.20;36.10;;;;;;20896055;28;80918;-74
2021/09/19 00:25:10;;;;;;;5.75;0.93;;;19.10;36.50;;;;;;20894952;28;81196;-77
2021/09/19 00:35:13;;;;;;;1.80;0.30;;;19.00;37.00;;;;;;20893754;28;81815;-76
2021/09/19 00:45:20;;;;;;;2.23;0.40;;;18.90;36.90;;;;;;20893322;28;80765;-76
2021/09/19 00:55:22;;;;;;;1.38;0.43;;;18.90;37.30;;;;;;20892408;28;80085;-76
2021/09/19 01:05:26;;;;;;;1.92;0.52;;;18.80;37.60;;;;;;20891948;28;81030;-74
2021/09/19 01:15:32;;;;;;;3.38;0.85;;;18.60;37.80;;;;;;20872808;28;81023;-73
2021/09/19 01:25:40;;;;;;;2.53;0.80;;;18.40;40.20;;;;;;20889950;28;81166;-74
2021/09/19 01:35:47;;;;;;;2.85;0.40;;;18.20;41.70;;;;;;20889096;28;81134;-74
2021/09/19 01:45:58;;;;;;;2.13;0.55;;;17.70;46.10;;;;;;20888557;28;79924;-73
2021/09/19 01:56:05;;;;;;;1.95;0.60;;;17.40;47.00;;;;;;20888220;28;81266;-74
2021/09/19 02:06:13;;;;;;;3.05;0.57;;;17.20;49.00;;;;;;20887091;28;81435;-75
2021/09/19 02:16:35;;;;;;;2.35;0.63;;;17.00;48.60;;;;;;20871645;28;80782;-74
2021/09/19 02:26:56;;;;;;;2.90;0.35;;;17.00;49.00;;;;;;20886590;28;82330;-75
2021/09/19 02:37:17;;;;;;;5.72;0.98;;;17.10;49.00;;;;;;20870674;28;81083;-75
2021/09/19 02:47:39;;;;;;;2.28;0.70;;;17.00;49.00;;;;;;20885067;28;80398;-73
2021/09/19 02:58:00;;;;;;;2.95;0.63;;;16.80;49.00;;;;;;20869901;28;80233;-71
2021/09/19 03:08:22;;;;;;;2.55;0.40;;;16.30;49.70;;;;;;20884914;28;83091;-74
2021/09/19 03:18:41;;;;;;;2.15;0.30;;;16.00;50.60;;;;;;20868990;28;79846;-74
2021/09/19 03:28:53;;;;;;;2.97;0.77;;;15.70;51.50;;;;;;20867385;28;81994;-74
2021/09/19 03:39:09;;;;;;;1.77;0.20;;;15.50;52.10;;;;;;20880403;27;81803;-75
2021/09/19 03:49:16;;;;;;;1.38;0.20;;;15.20;53.60;;;;;;20880233;28;81423;-74
2021/09/19 03:59:21;;;;;;;1.17;0.43;;;15.10;53.90;;;;;;20879328;28;82269;-75
2021/09/19 04:09:35;;;;;;;1.85;0.28;;;15.10;53.30;;;;;;20895667;28;80617;-73
2021/09/19 04:19:47;;;;;;;4.13;1.10;;;15.00;53.10;;;;;;20878857;28;81931;-75
2021/09/19 04:30:00;;;;;;;1.38;0.50;;;14.90;53.70;;;;;;20878473;28;81023;-71
2021/09/19 04:40:09;;;;;;;1.05;0.30;;;14.80;53.70;;;;;;20894107;28;81001;-74
2021/09/19 04:50:25;;;;;;;2.55;0.52;;;14.70;54.60;;;;;;20877785;27;81724;-73
2021/09/19 05:00:29;;;;;;;0.93;0.30;;;14.60;55.20;;;;;;20892339;28;81814;-73
2021/09/19 05:10:33;;;;;;;1.65;0.40;;;14.40;55.60;;;;;;20891435;28;81042;-73
2021/09/19 05:20:37;;;;;;;3.65;0.50;;;14.30;56.00;;;;;;20873522;28;80787;-73
2021/09/19 05:30:42;;;;;;;2.42;0.90;;;14.20;56.90;;;;;;20872763;28;80689;-72
2021/09/19 05:40:51;;;;;;;2.20;0.60;;;14.20;59.10;;;;;;20889687;28;81666;-74
2021/09/19 05:50:56;;;;;;;4.07;0.50;;;14.30;59.70;;;;;;20888700;28;81666;-73
2021/09/19 06:01:03;;;;;;;3.03;0.98;;;14.20;60.60;;;;;;20888352;27;82257;-77
2021/09/19 06:11:09;;;;;;;3.38;0.90;;;14.10;60.50;;;;;;20888843;28;81337;-74
2021/09/19 06:21:14;;;;;;;4.88;0.70;;;14.10;59.80;;;;;;20888042;28;82118;-70
2021/09/19 06:31:18;;;;;;;2.28;0.63;;;14.10;59.60;;;;;;20887463;28;81643;-62
2021/09/19 06:41:23;;;;;;;4.90;0.85;;;14.30;59.10;;;;;;20887440;28;81880;-62
2021/09/19 06:51:28;;;;;;;4.57;0.57;;;14.40;58.20;;;;;;20888018;28;81693;-70
2021/09/19 07:01:31;;;;;;;2.65;0.98;;;14.50;57.40;;;;;;20885551;28;81129;-67
2021/09/19 07:11:33;;;;;;;2.13;0.73;;;14.70;56.40;;;;;;20889400;27;80855;-66
2021/09/19 07:21:36;;;;;;;5.13;0.70;;;14.80;55.80;;;;;;20879344;28;80822;-67
2021/09/19 07:31:39;;;;;;;8.13;0.90;;;15.00;55.30;;;;;;20897171;28;81819;-66
2021/09/19 07:41:47;;;;;;;4.40;1.10;;;15.50;54.90;;;;;;20898671;28;80651;-67
2021/09/19 07:51:52;;;;;;;2.10;0.82;;;16.00;54.00;;;;;;20880074;28;80835;-66
2021/09/19 08:01:54;;;;;;;3.23;1.03;;;16.50;53.20;;;;;;20879621;28;79954;-67
2021/09/19 08:11:57;;;;;;;;;;;17.00;53.70;;;;;;20897457;28;80737;-66
2021/09/19 08:22:00;;;;;;;3.60;1.00;;;17.60;53.70;;;;;;20899367;28;81850;-66
2021/09/19 08:32:05;;;;;;;6.32;1.08;;;18.10;53.10;;;;;;20896907;28;79918;-66
2021/09/19 08:42:08;;;;;;;;;;;18.50;52.10;;;;;;20894387;28;80642;-67
2021/09/19 08:52:12;;;;;;;6.35;1.08;;;18.90;51.50;;;;;;20915072;28;80770;-65
2021/09/19 09:02:15;;;;;;;3.05;0.93;;;19.30;50.10;;;;;;20893376;28;80019;-67
2021/09/19 09:12:19;;;;;;;2.28;0.90;;;19.80;48.40;;;;;;20892667;28;80704;-64
2021/09/19 09:22:27;;;;;;;4.23;1.10;;;20.70;46.60;;;;;;20892314;28;81798;-63
2021/09/19 09:32:29;;;;;;;5.10;1.20;;;21.80;44.20;;;;;;20890705;27;80755;-65
2021/09/19 09:42:36;;;;;;;2.80;1.33;;;23.10;40.70;;;;;;20890667;28;80805;-65
2021/09/19 09:52:39;;;;;;;3.47;0.90;;;24.30;38.50;;;;;;20891070;28;81736;-66
2021/09/19 10:02:45;;;;;;;4.70;0.80;;;25.70;35.90;;;;;;20890792;28;80889;-65
2021/09/19 10:12:48;;;;;;;2.70;1.00;;;27.00;33.50;;;;;;20872480;28;80855;-66
2021/09/19 10:23:01;;;;;;;3.40;0.85;;;28.80;31.30;;;;;;20888805;28;80801;-65
2021/09/19 10:33:40;;;;;;;1.30;0.68;;;30.60;28.90;;;;;;20886472;28;80895;-67
2021/09/19 10:43:54;;;;;;;4.00;0.90;;;32.80;26.40;;;;;;20869854;28;80605;-65
2021/09/19 10:53:58;;;;;;;2.55;1.08;;;35.90;22.80;;;;;;20887296;28;80628;-65
2021/09/19 11:04:10;;;;;;;1.65;0.80;;;38.50;20.00;;;;;;20886696;28;80824;-67
2021/09/19 11:14:12;;;;;;;3.60;0.60;;;41.20;17.90;;;;;;20886562;28;80561;-66
2021/09/19 11:24:15;;;;;;;1.10;0.50;;;43.30;16.30;;;;;;20885579;28;80693;-66
2021/09/19 11:34:22;;;;;;;1.52;0.68;;;43.70;15.30;;;;;;20885062;28;80813;-66
2021/09/19 11:44:25;;;;;;;2.85;0.60;;;45.50;14.30;;;;;;20884457;28;79994;-66
2021/09/19 11:54:28;;;;;;;6.03;0.90;;;46.90;14.30;;;;;;20884549;27;81960;-65
2021/09/19 12:04:33;;;;;;;4.05;0.65;;;46.90;13.50;;;;;;20877329;27;80831;-66
2021/09/19 12:14:44;;;;;;;1.77;0.80;;;39.30;17.90;;;;;;20897539;28;81841;-66
2021/09/19 12:24:52;;;;;;;3.10;0.77;;;41.00;16.30;;;;;;20898369;27;81934;-66
2021/09/19 12:35:30;;;;;;;1.45;0.50;;;37.20;19.30;;;;;;20809113;28;80716;-67
2021/09/19 12:45:33;;;;;;;3.15;0.70;;;34.20;20.90;;;;;;20790586;28;81809;-66
2021/09/19 12:55:42;;;;;;;2.88;0.88;;;31.70;23.90;;;;;;20799397;28;81756;-66
2021/09/19 13:05:45;;;;;;;2.88;0.70;;;34.80;20.80;;;;;;20804030;28;80616;-68
2021/09/19 13:15:49;;;;;;;1.02;0.47;;;38.60;17.50;;;;;;20791500;28;81108;-68
2021/09/19 13:25:52;;;;;;;4.20;1.98;;;40.00;16.80;;;;;;20808430;28;80828;-68
2021/09/19 13:35:56;;;;;;;1.33;0.60;;;37.80;18.20;;;;;;20808176;28;80072;-68
2021/09/19 13:46:01;;;;;;;2.10;0.80;;;38.90;17.10;;;;;;20807691;28;80742;-68
2021/09/19 13:56:05;;;;;;;1.52;0.75;;;42.50;14.60;;;;;;20806601;28;80494;-68
2021/09/19 14:06:07;;;;;;;1.33;1.00;;;39.90;16.20;;;;;;20805886;28;80730;-70
2021/09/19 14:16:10;;;;;;;3.40;0.98;;;38.70;17.50;;;;;;20805247;28;80942;-68
2021/09/19 14:26:12;;;;;;;1.60;1.15;;;44.70;14.30;;;;;;20788039;28;80811;-68
2021/09/19 14:36:18;;;;;;;3.25;1.38;;;47.90;13.40;;;;;;20858973;27;81830;-71
2021/09/19 14:46:22;;;;;;;2.80;1.45;;;47.90;12.60;;;;;;20887016;27;81054;-68
2021/09/19 14:56:25;;;;;;;2.58;1.70;;;45.90;13.90;;;;;;20885817;28;80618;-69
2021/09/19 15:06:27;;;;;;;3.50;1.70;;;46.40;13.10;;;;;;20901590;27;80768;-70
2021/09/19 15:16:39;;;;;;;3.13;1.60;;;47.90;12.50;;;;;;20941052;27;80770;-69
2021/09/19 15:26:41;;;;;;;4.25;1.85;;;41.60;15.30;;;;;;20958953;27;80660;-69
2021/09/19 15:36:43;;;;;;;2.40;1.80;;;42.70;15.20;;;;;;20976829;27;80071;-69
2021/09/19 15:46:47;;;;;;;2.40;2.20;;;47.20;12.50;;;;;;20905029;27;80390;-70
2021/09/19 15:56:51;;;;;;;3.38;2.03;;;48.40;12.20;;;;;;20895307;28;80966;-70
2021/09/19 16:06:54;;;;;;;2.05;1.58;;;48.90;12.00;;;;;;20890446;28;80802;-69
2021/09/19 16:16:56;;;;;;;2.50;1.33;;;43.00;14.30;;;;;;20893354;28;80834;-69
2021/09/19 16:26:58;;;;;;;1.83;1.38;;;37.40;17.70;;;;;;20878396;28;80722;-68
2021/09/19 16:37:01;;;;;;;2.65;1.25;;;35.10;19.40;;;;;;20877413;28;81468;-69
2021/09/19 16:47:04;;;;;;;1.88;1.20;;;32.80;21.30;;;;;;20895035;27;80764;-67
2021/09/19 16:57:06;;;;;;;2.10;1.45;;;31.60;23.20;;;;;;20895021;28;79861;-68
2021/09/19 17:07:08;;;;;;;4.50;1.20;;;31.30;23.60;;;;;;20893789;28;80011;-69
2021/09/19 17:17:10;;;;;;;2.63;1.73;;;29.90;24.70;;;;;;20893534;28;80693;-67
2021/09/19 17:27:13;;;;;;;4.47;1.60;;;29.10;25.90;;;;;;20873511;27;80514;-69
2021/09/19 17:37:14;;;;;;;3.08;1.35;;;28.50;26.40;;;;;;20890391;28;80594;-68
2021/09/19 17:47:16;;;;;;;3.38;1.40;;;27.90;27.30;;;;;;20890236;27;81064;-68
2021/09/19 17:57:18;;;;;;;3.97;1.60;;;27.50;28.40;;;;;;20886799;27;81076;-71
2021/09/19 18:07:20;;;;;;;6.53;1.95;;;26.90;29.10;;;;;;20886586;28;80564;-71
2021/09/19 18:17:22;;;;;;;3.58;2.58;;;26.60;29.50;;;;;;20869314;28;80650;-70
2021/09/19 18:27:25;;;;;;;4.25;2.35;;;26.20;31.00;;;;;;20887052;27;81538;-73
2021/09/19 18:37:27;;;;;;;7.65;2.58;;;25.80;31.80;;;;;;20879727;28;80397;-70
2021/09/19 18:47:29;;;;;;;10.27;3.10;;;25.30;32.80;;;;;;20877287;27;80893;-70
2021/09/19 18:57:31;;;;;;;12.00;3.55;;;25.00;33.70;;;;;;20858786;28;82174;-71
2021/09/19 19:07:33;;;;;;;8.00;3.28;;;24.70;34.60;;;;;;20893719;27;81836;-71
2021/09/19 19:17:34;;;;;;;12.20;4.25;;;24.30;35.70;;;;;;20899063;27;81181;-71
2021/09/19 19:27:36;;;;;;;7.38;4.20;;;24.10;36.20;;;;;;20881051;28;79969;-69
2021/09/19 19:37:38;;;;;;;14.68;5.25;;;23.80;36.90;;;;;;20878656;28;82009;-71
2021/09/19 19:47:42;;;;;;;11.52;4.53;;;23.50;37.70;;;;;;20898667;28;81305;-71
2021/09/19 19:57:44;;;;;;;9.70;5.50;;;23.40;38.20;;;;;;20897248;28;81115;-72
2021/09/19 20:07:47;;;;;;;12.43;6.13;;;23.10;39.20;;;;;;20897066;28;81047;-70
2021/09/19 20:17:49;;;;;;;18.70;6.13;;;22.90;39.80;;;;;;20877958;27;80919;-71
2021/09/19 20:27:51;;;;;;;16.20;6.60;;;22.70;40.30;;;;;;20877646;27;81916;-70
2021/09/19 20:37:53;;;;;;;7.70;2.90;;;22.50;40.20;;;;;;20895556;28;80590;-71
2021/09/19 20:47:56;;;;;;;6.78;2.45;;;22.30;40.80;;;;;;20894519;27;81124;-72
2021/09/19 20:57:58;;;;;;;8.02;2.58;;;22.20;41.10;;;;;;20894140;27;81965;-71
2021/09/19 21:08:00;;;;;;;8.43;3.15;;;22.00;41.20;;;;;;20893464;28;80581;-71
2021/09/19 21:18:02;;;;;;;5.82;2.92;;;21.80;41.90;;;;;;20892032;28;80593;-71
2021/09/19 21:28:04;;;;;;;13.23;2.60;;;21.60;42.10;;;;;;20889833;27;80694;-70
2021/09/19 21:38:06;;;;;;;6.63;2.60;;;21.40;42.50;;;;;;20872500;27;81837;-70
2021/09/19 21:48:08;;;;;;;6.35;2.20;;;21.30;42.70;;;;;;20872847;28;80070;-71
2021/09/19 21:58:12;;;;;;;6.95;2.55;;;21.20;43.10;;;;;;20872168;28;80996;-71
2021/09/19 22:08:13;;;;;;;;;;;21.00;43.70;;;;;;20889840;28;81917;-70
2021/09/19 22:18:15;;;;;;;3.95;1.95;;;20.70;44.00;;;;;;20908454;27;80673;-71
2021/09/19 22:28:18;;;;;;;6.28;2.67;;;20.60;44.70;;;;;;20869525;28;80060;-71
2021/09/19 22:38:20;;;;;;;8.30;2.22;;;20.50;44.60;;;;;;20885819;28;80618;-71
2021/09/19 22:48:23;;;;;;;3.17;1.60;;;20.30;45.10;;;;;;20867545;28;81096;-71
2021/09/19 22:58:25;;;;;;;4.43;1.60;;;20.10;45.50;;;;;;20866759;28;81167;-72
2021/09/19 23:08:30;;;;;;;4.43;1.80;;;20.00;45.80;;;;;;20885671;28;79815;-71
2021/09/19 23:18:32;;;;;;;4.53;1.75;;;19.70;47.20;;;;;;20859479;28;81114;-73
2021/09/19 23:28:35;;;;;;;5.45;1.38;;;19.60;47.70;;;;;;20883383;28;81849;-71
2021/09/19 23:38:37;;;;;;;7.43;2.70;;;19.50;48.40;;;;;;20864834;28;81717;-70
2021/09/19 23:48:39;;;;;;;7.20;4.00;;;19.20;49.60;;;;;;20881643;27;81725;-70
2021/09/19 23:58:40;;;;;;;3.93;2.07;;;19.00;50.40;;;;;;20895463;28;80856;-70
